Time;durP1;ratioP1;P1;durP2;ratioP2;P2;SDS_P1;SDS_P2;PMS_P1;PMS_P2;Temp;Humidity;BMP_temperature;BMP_pressure;BME280_temperature;BME280_humidity;BME280_pressure;Samples;Min_cycle;Max_cycle;Signal;HPM_P1;HPM_P2
2021/09/01 00:00:12;;;;;;;8.63;6.43;;;15.10;99.90;;;;;;5016190;28;20891;-43
2021/09/01 00:02:40;;;;;;;12.27;7.93;;;15.10;99.90;;;;;;5016348;28;20472;-44
2021/09/01 00:05:09;;;;;;;8.90;6.60;;;15.00;99.90;;;;;;5028753;28;20432;-43
2021/09/01 00:07:35;;;;;;;9.67;6.57;;;15.00;99.90;;;;;;5033210;28;20444;-44
2021/09/01 00:10:02;;;;;;;10.53;5.80;;;15.00;99.90;;;;;;5038084;28;20456;-43
2021/09/01 00:12:30;;;;;;;9.03;6.50;;;15.00;99.90;;;;;;5038844;28;20444;-48
2021/09/01 00:14:57;;;;;;;12.17;6.20;;;15.00;99.90;;;;;;5033673;28;20488;-47
2021/09/01 00:17:24;;;;;;;12.70;6.80;;;14.90;99.90;;;;;;5026684;28;20499;-43
2021/09/01 00:19:51;;;;;;;8.87;6.07;;;15.00;99.90;;;;;;5030816;28;20436;-48
2021/09/01 00:22:17;;;;;;;10.47;7.00;;;15.00;99.90;;;;;;5033255;28;20436;-45
2021/09/01 00:24:44;;;;;;;9.13;6.10;;;15.00;99.90;;;;;;5037011;28;20983;-47
2021/09/01 00:27:12;;;;;;;8.30;5.97;;;15.00;99.90;;;;;;5042020;28;20444;-45
2021/09/01 00:29:39;;;;;;;14.00;6.60;;;15.00;99.90;;;;;;5041545;28;20481;-43
2021/09/01 00:32:07;;;;;;;8.47;6.00;;;15.00;99.90;;;;;;5041752;28;20451;-43
2021/09/01 00:34:33;;;;;;;9.43;6.87;;;15.00;99.90;;;;;;5041553;28;20521;-47
2021/09/01 00:37:00;;;;;;;10.37;7.43;;;15.00;99.90;;;;;;5041299;28;20819;-46
2021/09/01 00:39:26;;;;;;;9.20;6.60;;;15.10;99.90;;;;;;5041789;28;20827;-46
2021/09/01 00:41:53;;;;;;;9.03;6.43;;;15.00;99.90;;;;;;5041250;28;21060;-46
2021/09/01 00:44:25;;;;;;;9.10;6.90;;;15.00;99.90;;;;;;5041420;28;20474;-45
2021/09/01 00:46:56;;;;;;;9.67;6.23;;;15.10;99.90;;;;;;5041776;28;20464;-44
2021/09/01 00:49:23;;;;;;;8.80;6.90;;;15.10;99.90;;;;;;5041841;28;20448;-43
2021/09/01 00:51:51;;;;;;;8.90;6.77;;;15.10;99.90;;;;;;5041505;28;20440;-43
2021/09/01 00:54:21;;;;;;;11.50;7.23;;;15.10;99.90;;;;;;5041625;28;20444;-44
2021/09/01 00:56:52;;;;;;;10.50;7.20;;;15.10;99.90;;;;;;5041757;28;20440;-42
2021/09/01 00:59:23;;;;;;;8.80;6.20;;;15.10;99.90;;;;;;5042205;28;20455;-44
2021/09/01 01:01:50;;;;;;;9.10;7.60;;;15.10;99.90;;;;;;5041785;28;20923;-46
2021/09/01 01:04:19;;;;;;;8.90;5.90;;;15.10;99.90;;;;;;5041413;28;20444;-51
2021/09/01 01:06:45;;;;;;;7.20;5.90;;;15.10;99.90;;;;;;5041256;28;20493;-43
2021/09/01 01:09:15;;;;;;;9.90;7.03;;;15.10;99.90;;;;;;5041518;28;20452;-49
2021/09/01 01:12:00;;;;;;;9.60;6.93;;;15.10;99.90;;;;;;5040933;28;20448;-46
2021/09/01 01:14:27;;;;;;;9.03;6.20;;;15.10;99.90;;;;;;5040872;28;20424;-50
2021/09/01 01:16:54;;;;;;;11.47;6.73;;;15.10;99.90;;;;;;5040403;28;20460;-47
2021/09/01 01:19:22;;;;;;;9.63;8.33;;;15.10;99.90;;;;;;5041160;28;20436;-45
2021/09/01 01:21:51;;;;;;;10.40;7.93;;;15.20;99.90;;;;;;5041027;28;20831;-43
2021/09/01 01:24:18;;;;;;;8.97;6.80;;;15.10;99.90;;;;;;5040170;28;20448;-43
2021/09/01 01:26:46;;;;;;;7.50;6.77;;;15.10;99.90;;;;;;5040101;28;20746;-44
2021/09/01 01:29:12;;;;;;;10.53;8.37;;;15.10;99.90;;;;;;5040484;28;20429;-46
2021/09/01 01:31:40;;;;;;;13.00;8.07;;;15.10;99.90;;;;;;5040754;28;20502;-45
2021/09/01 01:34:14;;;;;;;13.13;7.10;;;15.10;99.90;;;;;;5040592;28;20752;-44
2021/09/01 01:36:41;;;;;;;9.97;7.80;;;15.10;99.90;;;;;;5039721;28;20492;-45
2021/09/01 01:39:08;;;;;;;9.77;6.77;;;15.10;99.90;;;;;;5041351;28;20456;-47
2021/09/01 01:41:34;;;;;;;11.13;8.33;;;15.10;99.90;;;;;;5040278;28;20809;-49
2021/09/01 01:44:02;;;;;;;12.70;8.97;;;15.00;99.90;;;;;;5040302;28;20936;-46
2021/09/01 01:46:29;;;;;;;11.50;7.90;;;15.00;99.90;;;;;;5040256;28;20448;-46
2021/09/01 01:48:56;;;;;;;9.87;7.90;;;15.00;99.90;;;;;;5039518;28;20913;-46
2021/09/01 01:51:22;;;;;;;12.50;8.83;;;15.10;99.90;;;;;;5040044;28;20831;-46
2021/09/01 01:53:49;;;;;;;8.87;7.97;;;15.10;99.90;;;;;;5040898;28;20885;-45
2021/09/01 01:56:15;;;;;;;11.23;7.93;;;15.10;99.90;;;;;;5039954;28;20867;-49
2021/09/01 01:59:06;;;;;;;10.50;7.90;;;15.10;99.90;;;;;;5040303;28;20444;-45
2021/09/01 02:01:32;;;;;;;14.40;8.63;;;15.10;99.90;;;;;;5040306;28;20491;-43
2021/09/01 02:03:59;;;;;;;12.07;8.17;;;15.10;99.90;;;;;;5040510;28;20448;-45
2021/09/01 02:06:27;;;;;;;14.27;8.53;;;15.10;99.90;;;;;;5040201;28;20448;-44
2021/09/01 02:08:53;;;;;;;9.30;7.90;;;15.10;99.90;;;;;;5040716;28;20579;-45
2021/09/01 02:11:20;;;;;;;12.10;8.70;;;15.10;99.90;;;;;;5040169;28;20842;-46
2021/09/01 02:13:47;;;;;;;12.80;7.53;;;15.10;99.90;;;;;;5039932;28;20966;-43
2021/09/01 02:16:15;;;;;;;10.10;7.40;;;15.10;99.90;;;;;;5039540;28;20479;-46
2021/09/01 02:18:41;;;;;;;10.00;7.33;;;15.10;99.90;;;;;;5039995;28;20455;-48
2021/09/01 02:21:08;;;;;;;14.67;8.40;;;15.10;99.90;;;;;;5039999;28;20444;-44
2021/09/01 02:23:35;;;;;;;12.10;8.60;;;15.10;99.90;;;;;;5039586;28;20916;-46
2021/09/01 02:26:03;;;;;;;11.30;8.10;;;15.10;99.90;;;;;;5039555;28;20460;-46
2021/09/01 02:28:30;;;;;;;11.90;8.97;;;15.00;99.90;;;;;;5039717;28;20444;-48
2021/09/01 02:30:57;;;;;;;12.73;8.40;;;15.10;99.90;;;;;;5040280;28;20829;-45
2021/09/01 02:33:25;;;;;;;10.27;8.00;;;15.00;99.90;;;;;;5039794;28;20464;-46
2021/09/01 02:35:51;;;;;;;13.40;8.20;;;15.10;99.90;;;;;;5038995;28;20484;-44
2021/09/01 02:38:20;;;;;;;12.00;7.40;;;15.10;99.90;;;;;;5039589;28;20444;-46
2021/09/01 02:40:48;;;;;;;12.13;7.53;;;15.10;99.90;;;;;;5039661;28;20452;-48
2021/09/01 02:43:15;;;;;;;10.00;7.40;;;15.10;99.90;;;;;;5039354;28;20452;-46
2021/09/01 02:45:44;;;;;;;12.47;9.17;;;15.10;99.90;;;;;;5039516;28;20448;-43
2021/09/01 02:48:10;;;;;;;11.23;7.63;;;15.00;99.90;;;;;;5038826;28;20456;-48
2021/09/01 02:50:38;;;;;;;10.47;8.00;;;15.00;99.90;;;;;;5039705;28;20842;-46
2021/09/01 02:53:07;;;;;;;11.53;7.93;;;14.90;99.90;;;;;;5039467;28;20518;-45
2021/09/01 02:55:33;;;;;;;9.33;6.43;;;14.90;99.90;;;;;;5039452;28;20475;-45
2021/09/01 02:58:00;;;;;;;11.90;8.13;;;14.90;99.90;;;;;;5039440;28;20460;-45
2021/09/01 03:00:27;;;;;;;12.90;7.50;;;14.90;99.90;;;;;;5040263;28;20506;-45
2021/09/01 03:02:53;;;;;;;17.50;8.40;;;14.90;99.90;;;;;;5040299;28;20928;-47
2021/09/01 03:05:23;;;;;;;9.40;8.27;;;14.90;99.90;;;;;;5040561;28;20846;-43
2021/09/01 03:07:51;;;;;;;11.60;7.60;;;14.80;99.90;;;;;;5040269;28;20460;-45
2021/09/01 03:10:17;;;;;;;11.80;8.17;;;14.80;99.90;;;;;;5039822;28;20444;-49
2021/09/01 03:12:44;;;;;;;11.63;8.00;;;14.80;99.90;;;;;;5039484;28;20444;-45
2021/09/01 03:15:11;;;;;;;14.13;8.20;;;14.80;99.90;;;;;;5038912;28;20441;-44
2021/09/01 03:17:38;;;;;;;10.33;8.07;;;14.80;99.90;;;;;;5039389;28;21003;-45
2021/09/01 03:20:06;;;;;;;10.60;8.13;;;14.80;99.90;;;;;;5039583;28;20440;-43
2021/09/01 03:22:32;;;;;;;12.43;9.07;;;14.80;99.90;;;;;;5039186;28;20504;-46
2021/09/01 03:25:00;;;;;;;11.20;7.80;;;14.80;99.90;;;;;;5039079;28;20543;-45
2021/09/01 03:27:27;;;;;;;12.17;8.13;;;14.80;99.90;;;;;;5039178;28;20448;-44
2021/09/01 03:29:54;;;;;;;12.53;8.90;;;14.90;99.90;;;;;;5038831;28;20487;-42
2021/09/01 03:32:20;;;;;;;15.53;8.50;;;14.80;99.90;;;;;;5038627;28;20909;-42
2021/09/01 03:34:47;;;;;;;7.80;6.97;;;14.80;99.90;;;;;;5038888;28;20505;-50
2021/09/01 03:37:14;;;;;;;9.03;7.00;;;14.80;99.90;;;;;;5037888;28;20514;-48
2021/09/01 03:39:41;;;;;;;11.63;7.77;;;14.80;99.90;;;;;;5038301;28;20781;-44
2021/09/01 03:42:09;;;;;;;13.87;8.80;;;14.70;99.90;;;;;;5038575;28;20447;-45
2021/09/01 03:44:36;;;;;;;10.07;8.13;;;14.70;99.90;;;;;;5038212;28;20933;-50
2021/09/01 03:47:03;;;;;;;9.80;7.60;;;14.70;99.90;;;;;;5038071;28;20456;-44
2021/09/01 03:49:29;;;;;;;11.80;8.00;;;14.70;99.90;;;;;;5038553;28;20913;-48
2021/09/01 03:51:56;;;;;;;10.60;7.90;;;14.70;99.90;;;;;;5038186;28;20490;-43
2021/09/01 03:54:25;;;;;;;12.70;8.40;;;14.70;99.90;;;;;;5038447;28;20451;-48
2021/09/01 03:56:51;;;;;;;9.87;7.40;;;14.60;99.90;;;;;;5038404;28;20545;-46
2021/09/01 03:59:19;;;;;;;10.50;7.90;;;14.60;99.90;;;;;;5037876;28;20840;-46
2021/09/01 04:01:46;;;;;;;15.13;9.47;;;14.60;99.90;;;;;;5038587;28;20444;-45
2021/09/01 04:04:13;;;;;;;14.60;8.93;;;14.60;99.90;;;;;;5038072;28;20464;-43
2021/09/01 04:06:39;;;;;;;11.93;8.80;;;14.60;99.90;;;;;;5038711;28;20440;-43
2021/09/01 04:09:08;;;;;;;12.07;9.03;;;14.60;99.90;;;;;;5038729;28;20448;-46
2021/09/01 04:11:34;;;;;;;11.97;8.00;;;14.50;99.90;;;;;;5038734;28;20460;-48
2021/09/01 04:14:01;;;;;;;13.73;8.67;;;14.60;99.90;;;;;;5038539;28;20443;-49
2021/09/01 04:16:29;;;;;;;11.20;8.00;;;14.50;99.90;;;;;;5037357;28;20480;-43
2021/09/01 04:18:56;;;;;;;10.83;7.20;;;14.50;99.90;;;;;;5035528;28;20487;-51
2021/09/01 04:21:23;;;;;;;10.93;7.90;;;14.50;99.90;;;;;;5035001;28;20456;-50
2021/09/01 04:23:49;;;;;;;14.20;8.70;;;14.50;99.90;;;;;;5035027;28;20971;-51
2021/09/01 04:26:16;;;;;;;10.97;8.00;;;14.50;99.90;;;;;;5034694;28;20440;-53
2021/09/01 04:28:43;;;;;;;10.63;8.80;;;14.40;99.90;;;;;;5035025;28;20452;-48
2021/09/01 04:31:10;;;;;;;13.47;7.90;;;14.40;99.90;;;;;;5034678;28;20440;-49
2021/09/01 04:33:38;;;;;;;13.50;8.13;;;14.40;99.90;;;;;;5035599;28;20507;-49
2021/09/01 04:36:05;;;;;;;13.67;8.60;;;14.40;99.90;;;;;;5036722;28;20488;-51
2021/09/01 04:38:32;;;;;;;10.00;8.17;;;14.40;99.90;;;;;;5036511;28;20448;-52
2021/09/01 04:40:58;;;;;;;13.97;9.93;;;14.40;99.90;;;;;;5036897;28;20941;-49
2021/09/01 04:43:25;;;;;;;11.00;7.73;;;14.50;99.90;;;;;;5036622;28;20451;-47
2021/09/01 04:45:52;;;;;;;11.57;9.03;;;14.40;99.90;;;;;;5036300;28;20444;-49
2021/09/01 04:48:18;;;;;;;10.83;7.83;;;14.40;99.90;;;;;;5035361;28;20448;-47
2021/09/01 04:50:47;;;;;;;11.27;8.50;;;14.50;99.90;;;;;;5034339;28;20945;-51
2021/09/01 04:53:13;;;;;;;9.73;6.83;;;14.40;99.90;;;;;;5034915;28;20448;-53
2021/09/01 04:55:40;;;;;;;10.90;7.43;;;14.50;99.90;;;;;;5034775;28;20532;-53
2021/09/01 04:58:07;;;;;;;9.97;7.90;;;14.50;99.90;;;;;;5034799;28;20452;-49
2021/09/01 05:00:33;;;;;;;13.80;7.33;;;14.40;99.90;;;;;;5035334;28;20514;-50
2021/09/01 05:03:00;;;;;;;12.43;8.23;;;14.40;99.90;;;;;;5035263;28;20545;-54
2021/09/01 05:05:27;;;;;;;12.13;7.70;;;14.50;99.90;;;;;;5035081;28;20913;-51
2021/09/01 05:07:55;;;;;;;10.40;7.50;;;14.60;99.90;;;;;;5034988;28;20444;-48
2021/09/01 05:10:22;;;;;;;11.00;7.97;;;14.60;99.90;;;;;;5035739;28;20456;-52
2021/09/01 05:12:49;;;;;;;11.50;7.93;;;14.60;99.90;;;;;;5033992;28;20507;-49
2021/09/01 05:15:19;;;;;;;10.43;7.53;;;14.70;99.90;;;;;;5038122;28;20443;-49
2021/09/01 05:17:46;;;;;;;11.40;7.37;;;14.70;99.90;;;;;;5038604;28;20562;-53
2021/09/01 05:20:14;;;;;;;9.33;7.10;;;14.80;99.90;;;;;;5038504;28;20518;-52
2021/09/01 05:22:45;;;;;;;9.70;7.37;;;14.80;99.90;;;;;;5038483;28;20444;-53
2021/09/01 05:25:15;;;;;;;11.20;7.50;;;14.80;99.90;;;;;;5038750;28;20458;-50
2021/09/01 05:27:44;;;;;;;10.50;7.77;;;14.80;99.90;;;;;;5038698;28;20452;-50
2021/09/01 05:30:13;;;;;;;10.93;7.50;;;14.90;99.90;;;;;;5038304;28;20448;-49
2021/09/01 05:32:43;;;;;;;7.70;6.53;;;14.80;99.90;;;;;;5038647;28;20447;-53
2021/09/01 05:35:11;;;;;;;10.83;6.50;;;14.90;99.90;;;;;;5038661;28;20465;-49
2021/09/01 05:37:38;;;;;;;11.37;8.10;;;14.90;99.90;;;;;;5037990;28;20479;-51
2021/09/01 05:40:08;;;;;;;11.60;7.00;;;14.90;99.90;;;;;;5037460;28;20510;-51
2021/09/01 05:42:37;;;;;;;11.00;7.70;;;14.90;99.90;;;;;;5038273;28;20448;-50
2021/09/01 05:45:05;;;;;;;10.57;7.03;;;15.00;99.90;;;;;;5038419;28;20538;-45
2021/09/01 05:47:32;;;;;;;11.20;7.20;;;15.00;99.90;;;;;;5036922;28;20444;-48
2021/09/01 05:50:00;;;;;;;10.27;6.97;;;14.90;99.90;;;;;;5038242;28;20957;-51
2021/09/01 05:52:28;;;;;;;8.60;6.10;;;15.00;99.90;;;;;;5037668;28;20452;-46
2021/09/01 05:54:56;;;;;;;10.80;7.30;;;15.10;99.90;;;;;;5038048;28;20451;-48
2021/09/01 05:57:33;;;;;;;10.87;6.87;;;15.10;99.90;;;;;;5037975;28;20488;-53
2021/09/01 06:00:06;;;;;;;7.70;6.27;;;15.10;99.90;;;;;;5036761;28;20439;-50
2021/09/01 06:02:40;;;;;;;10.57;7.10;;;15.20;99.90;;;;;;5036123;28;20459;-51
2021/09/01 06:05:08;;;;;;;12.53;7.73;;;15.30;99.90;;;;;;5031515;28;20447;-51
2021/09/01 06:07:38;;;;;;;14.53;6.20;;;15.40;99.90;;;;;;5028131;28;20449;-47
2021/09/01 06:10:05;;;;;;;11.20;6.80;;;15.40;99.90;;;;;;5027884;28;20991;-47
2021/09/01 06:12:36;;;;;;;10.30;6.47;;;15.40;99.90;;;;;;5019816;28;20977;-49
2021/09/01 06:15:04;;;;;;;8.93;7.00;;;15.50;99.90;;;;;;5019478;28;20459;-49
2021/09/01 06:17:31;;;;;;;9.27;6.97;;;15.50;99.90;;;;;;5035638;28;20542;-46
2021/09/01 06:19:58;;;;;;;9.40;6.33;;;15.60;99.90;;;;;;5024204;28;20441;-45
2021/09/01 06:22:24;;;;;;;12.67;7.30;;;15.60;99.90;;;;;;5014940;28;20453;-46
2021/09/01 06:24:51;;;;;;;10.20;7.10;;;15.70;99.90;;;;;;5034304;28;20647;-47
2021/09/01 06:27:18;;;;;;;9.20;7.00;;;15.70;99.90;;;;;;5035376;28;20451;-48
2021/09/01 06:29:44;;;;;;;9.20;6.10;;;15.80;99.90;;;;;;5026698;28;20771;-48
2021/09/01 06:32:12;;;;;;;8.97;6.50;;;15.90;99.90;;;;;;5028992;28;20464;-46
2021/09/01 06:34:40;;;;;;;10.17;8.10;;;15.90;99.90;;;;;;5019814;28;20465;-51
2021/09/01 06:37:07;;;;;;;9.90;5.60;;;15.90;99.90;;;;;;5031724;28;20496;-51
2021/09/01 06:39:34;;;;;;;10.93;6.50;;;15.90;99.90;;;;;;5024468;28;20502;-50
2021/09/01 06:42:01;;;;;;;9.13;6.30;;;15.90;99.90;;;;;;5023830;28;20453;-51
2021/09/01 06:44:27;;;;;;;9.20;5.63;;;15.90;99.90;;;;;;5030305;28;20456;-51
2021/09/01 06:46:54;;;;;;;12.43;7.53;;;15.90;99.90;;;;;;5018714;28;20508;-48
2021/09/01 06:49:22;;;;;;;8.67;6.30;;;15.90;99.90;;;;;;5029235;28;20445;-46
2021/09/01 06:51:49;;;;;;;10.13;7.10;;;16.00;99.90;;;;;;5025174;28;20444;-48
2021/09/01 06:54:16;;;;;;;8.40;5.30;;;16.00;99.90;;;;;;5021547;28;20508;-51
2021/09/01 06:56:42;;;;;;;7.07;6.37;;;16.00;99.90;;;;;;5030959;28;20472;-48
2021/09/01 06:59:09;;;;;;;8.10;6.07;;;16.00;99.90;;;;;;5019755;28;20452;-46
2021/09/01 07:01:36;;;;;;;9.27;6.30;;;16.10;99.90;;;;;;5026823;28;20445;-49
2021/09/01 07:04:05;;;;;;;7.33;5.30;;;16.20;99.90;;;;;;5026740;28;20452;-48
2021/09/01 07:06:36;;;;;;;7.67;6.27;;;16.30;99.90;;;;;;5018911;28;20778;-52
2021/09/01 07:09:05;;;;;;;12.13;6.77;;;16.40;99.90;;;;;;5018415;28;20474;-50
2021/09/01 07:11:32;;;;;;;7.63;6.73;;;16.50;99.90;;;;;;5024258;28;20805;-48
2021/09/01 07:13:58;;;;;;;10.43;6.80;;;16.60;99.90;;;;;;5034417;28;20901;-48
2021/09/01 07:16:25;;;;;;;10.53;6.23;;;16.60;99.90;;;;;;5019540;28;20516;-48
2021/09/01 07:18:52;;;;;;;7.73;5.83;;;16.60;99.90;;;;;;5031229;28;20785;-50
2021/09/01 07:21:19;;;;;;;9.50;6.63;;;16.60;99.90;;;;;;5020452;28;20925;-49
2021/09/01 07:23:47;;;;;;;7.20;6.20;;;16.60;99.90;;;;;;5034664;28;20498;-50
2021/09/01 07:26:14;;;;;;;9.43;6.30;;;16.60;99.90;;;;;;5020733;28;21089;-49
2021/09/01 07:28:41;;;;;;;11.70;6.27;;;16.70;99.90;;;;;;5030890;28;20444;-53
2021/09/01 07:31:09;;;;;;;10.40;7.40;;;16.80;99.90;;;;;;5019435;28;20451;-51
2021/09/01 07:33:36;;;;;;;9.50;5.87;;;16.80;99.90;;;;;;5035076;28;20460;-51
2021/09/01 07:36:03;;;;;;;8.73;6.23;;;16.90;99.90;;;;;;5034623;28;20953;-50
2021/09/01 07:38:30;;;;;;;10.00;6.20;;;17.10;99.90;;;;;;5034718;28;20964;-49
2021/09/01 07:40:58;;;;;;;9.00;6.43;;;17.20;99.90;;;;;;5018362;28;20510;-49
2021/09/01 07:43:27;;;;;;;9.17;6.33;;;17.40;99.90;;;;;;5027974;28;20461;-54
2021/09/01 07:45:54;;;;;;;8.33;6.50;;;17.60;99.90;;;;;;5014735;28;20448;-50
2021/09/01 07:48:21;;;;;;;10.00;6.60;;;17.80;99.90;;;;;;5014586;28;20468;-49
2021/09/01 07:50:51;;;;;;;10.10;6.00;;;18.00;99.90;;;;;;5015780;28;20445;-50
2021/09/01 07:53:17;;;;;;;9.80;5.87;;;18.10;99.90;;;;;;5028231;28;20488;-49
2021/09/01 07:55:44;;;;;;;8.67;6.43;;;18.20;99.90;;;;;;5023322;28;20440;-51
2021/09/01 07:58:12;;;;;;;9.40;7.27;;;18.30;99.90;;;;;;5020937;28;20872;-51
2021/09/01 08:00:40;;;;;;;13.00;6.07;;;18.50;99.90;;;;;;5014236;28;20558;-50
2021/09/01 08:03:07;;;;;;;9.90;6.60;;;18.80;99.90;;;;;;5018415;28;20787;-51
2021/09/01 08:05:34;;;;;;;10.40;6.83;;;19.20;99.90;;;;;;5025936;28;20507;-51
2021/09/01 08:08:00;;;;;;;8.23;6.27;;;20.30;99.90;;;;;;5019612;28;20511;-51
2021/09/01 08:10:27;;;;;;;7.80;6.70;;;21.50;99.90;;;;;;5014085;28;20453;-52
2021/09/01 08:12:53;;;;;;;9.20;6.13;;;22.90;99.90;;;;;;5032733;28;20448;-49
2021/09/01 08:15:22;;;;;;;8.93;6.43;;;23.40;99.90;;;;;;5033684;28;20498;-51
2021/09/01 08:17:49;;;;;;;6.03;5.10;;;23.70;99.90;;;;;;5024202;28;20488;-53
2021/09/01 08:20:16;;;;;;;7.73;5.97;;;24.30;99.90;;;;;;5027893;28;20510;-51
2021/09/01 08:22:43;;;;;;;9.93;5.73;;;24.50;99.90;;;;;;5034063;28;20826;-49
2021/09/01 08:25:11;;;;;;;9.13;5.70;;;24.30;99.90;;;;;;5029139;28;20946;-47
2021/09/01 08:27:38;;;;;;;11.07;7.97;;;24.00;99.90;;;;;;5022486;28;20519;-50
2021/09/01 08:30:08;;;;;;;7.87;6.00;;;23.90;99.90;;;;;;5033818;28;20510;-51
2021/09/01 08:32:36;;;;;;;10.47;6.53;;;23.30;99.90;;;;;;5017640;28;20453;-49
2021/09/01 08:35:03;;;;;;;9.93;7.87;;;22.70;99.90;;;;;;5017301;28;20456;-50
2021/09/01 08:37:30;;;;;;;11.60;7.60;;;22.30;99.90;;;;;;5033879;28;20471;-54
2021/09/01 08:39:56;;;;;;;8.43;6.83;;;21.80;99.90;;;;;;5033760;28;20905;-49
2021/09/01 08:42:23;;;;;;;9.60;7.60;;;21.40;99.90;;;;;;5019312;28;20527;-50
2021/09/01 08:44:50;;;;;;;9.47;6.90;;;21.00;99.90;;;;;;5030250;28;20440;-53
2021/09/01 08:47:17;;;;;;;10.90;7.20;;;20.60;99.90;;;;;;5026455;28;20441;-48
2021/09/01 08:49:47;;;;;;;10.10;6.90;;;20.30;99.90;;;;;;5027221;28;20440;-48
2021/09/01 08:52:14;;;;;;;10.50;7.70;;;20.10;99.90;;;;;;5037588;28;20451;-51
2021/09/01 08:54:41;;;;;;;14.40;6.80;;;20.00;99.90;;;;;;5020925;28;20921;-46
2021/09/01 08:57:08;;;;;;;17.93;8.70;;;19.90;99.90;;;;;;5033325;28;20449;-49
2021/09/01 08:59:34;;;;;;;13.00;8.13;;;19.80;99.90;;;;;;5025809;28;20464;-52
2021/09/01 09:02:01;;;;;;;9.30;6.80;;;19.60;99.90;;;;;;5025730;28;20456;-50
2021/09/01 09:04:29;;;;;;;10.43;8.03;;;19.50;99.90;;;;;;5032802;28;20440;-50
2021/09/01 09:06:59;;;;;;;13.77;7.40;;;19.40;99.90;;;;;;5020920;28;20453;-50
2021/09/01 09:09:27;;;;;;;12.70;7.77;;;19.20;99.90;;;;;;5030613;28;20444;-53
2021/09/01 09:11:55;;;;;;;8.70;7.40;;;19.00;99.90;;;;;;5017594;28;20515;-53
2021/09/01 09:14:27;;;;;;;10.23;8.20;;;18.80;99.90;;;;;;5017444;28;20552;-53
2021/09/01 09:17:06;;;;;;;11.10;7.80;;;18.70;99.90;;;;;;5033818;28;20448;-51
2021/09/01 09:19:48;;;;;;;10.67;7.30;;;18.50;99.90;;;;;;5017098;28;21013;-49
2021/09/01 09:22:21;;;;;;;12.33;8.10;;;18.50;99.90;;;;;;5030641;28;20450;-50
2021/09/01 09:25:06;;;;;;;12.90;8.43;;;18.40;99.90;;;;;;5020613;28;20938;-52
2021/09/01 09:27:41;;;;;;;13.60;9.50;;;18.20;99.90;;;;;;5028862;28;20905;-49
2021/09/01 09:30:30;;;;;;;11.30;8.63;;;18.00;99.90;;;;;;5029227;28;20451;-52
2021/09/01 09:33:00;;;;;;;10.90;8.33;;;18.00;99.90;;;;;;5034165;28;20437;-51
2021/09/01 09:35:28;;;;;;;13.87;8.40;;;17.70;99.90;;;;;;5023488;28;20533;-51
2021/09/01 09:38:06;;;;;;;14.50;10.07;;;17.70;99.90;;;;;;5025883;28;20981;-49
2021/09/01 09:40:34;;;;;;;13.80;10.17;;;17.70;99.90;;;;;;5032911;28;20505;-48
2021/09/01 09:43:17;;;;;;;18.00;9.30;;;17.70;99.90;;;;;;5020190;28;20437;-48
2021/09/01 09:45:45;;;;;;;13.20;10.00;;;17.90;99.90;;;;;;5024788;28;20757;-51
2021/09/01 09:48:12;;;;;;;14.00;9.20;;;18.00;99.90;;;;;;5029808;28;20446;-50
2021/09/01 09:50:38;;;;;;;10.77;8.60;;;18.20;99.90;;;;;;5020583;28;20441;-53
2021/09/01 09:53:06;;;;;;;17.10;10.97;;;18.30;99.90;;;;;;5032752;28;20952;-53
2021/09/01 09:55:34;;;;;;;12.10;10.03;;;18.30;99.90;;;;;;5024758;28;20456;-52
2021/09/01 09:58:01;;;;;;;13.87;9.70;;;18.40;99.90;;;;;;5023878;28;20531;-54
2021/09/01 10:00:29;;;;;;;11.93;9.30;;;18.60;99.90;;;;;;5031582;28;20479;-47
2021/09/01 10:02:56;;;;;;;12.67;10.63;;;18.70;99.90;;;;;;5019650;28;20473;-48
2021/09/01 10:05:27;;;;;;;16.20;9.77;;;18.60;99.90;;;;;;5029987;28;20457;-53
2021/09/01 10:07:56;;;;;;;12.30;9.40;;;18.50;99.90;;;;;;5026934;28;20897;-53
2021/09/01 10:10:24;;;;;;;18.07;10.80;;;18.30;99.90;;;;;;5021499;28;20471;-53
2021/09/01 10:12:50;;;;;;;11.60;9.80;;;18.30;99.90;;;;;;5032459;28;20444;-51
2021/09/01 10:15:22;;;;;;;13.10;9.50;;;18.20;99.90;;;;;;5016404;28;20452;-47
2021/09/01 10:17:55;;;;;;;13.50;10.40;;;18.20;99.90;;;;;;5026238;28;20464;-50
2021/09/01 10:20:23;;;;;;;11.40;9.93;;;18.30;99.90;;;;;;5021548;28;20461;-50
2021/09/01 10:23:00;;;;;;;12.40;8.40;;;18.40;99.90;;;;;;5032413;28;20478;-50
2021/09/01 10:25:36;;;;;;;10.33;8.90;;;18.60;99.90;;;;;;5023096;28;20800;-49
2021/09/01 10:28:34;;;;;;;11.23;9.10;;;18.60;99.90;;;;;;5024066;28;20460;-50
2021/09/01 10:31:28;;;;;;;15.03;9.97;;;18.60;99.90;;;;;;5032529;28;20752;-51
2021/09/01 10:34:00;;;;;;;12.77;9.00;;;18.60;99.90;;;;;;5017504;28;20558;-47
2021/09/01 10:36:51;;;;;;;12.10;8.97;;;18.50;99.90;;;;;;5035535;28;20480;-49
2021/09/01 10:39:37;;;;;;;9.47;7.17;;;18.60;99.90;;;;;;5021887;28;20522;-52
2021/09/01 10:42:37;;;;;;;9.50;6.90;;;18.50;99.90;;;;;;5035997;28;20743;-53
2021/09/01 10:45:07;;;;;;;12.60;7.97;;;18.40;99.90;;;;;;5015646;28;20460;-50
2021/09/01 10:48:01;;;;;;;16.77;7.87;;;18.50;99.90;;;;;;5015881;28;20507;-50
2021/09/01 10:50:31;;;;;;;10.83;7.03;;;18.50;99.90;;;;;;5030852;28;20513;-50
2021/09/01 10:52:59;;;;;;;8.73;7.63;;;18.50;99.90;;;;;;5032659;28;20501;-50
2021/09/01 10:55:27;;;;;;;8.40;6.87;;;18.60;99.90;;;;;;5022298;28;20444;-48
2021/09/01 10:58:21;;;;;;;10.27;7.97;;;18.70;99.90;;;;;;5035191;28;20487;-51
2021/09/01 11:00:54;;;;;;;11.63;7.90;;;18.60;99.90;;;;;;5018605;28;20468;-50
2021/09/01 11:03:33;;;;;;;11.17;8.07;;;18.60;99.90;;;;;;5029372;28;20449;-51
2021/09/01 11:06:23;;;;;;;12.60;7.40;;;18.70;99.90;;;;;;5026482;28;20932;-48
2021/09/01 11:09:02;;;;;;;14.30;8.00;;;18.70;99.90;;;;;;5018555;28;20790;-47
2021/09/01 11:11:50;;;;;;;11.87;8.87;;;18.80;99.90;;;;;;5034872;28;20522;-49
2021/09/01 11:14:33;;;;;;;13.43;7.50;;;18.90;99.90;;;;;;5026097;28;20528;-50
2021/09/01 11:17:00;;;;;;;10.20;7.93;;;18.90;99.90;;;;;;5031933;28;20461;-49
2021/09/01 11:19:28;;;;;;;10.70;8.43;;;18.90;99.90;;;;;;5022022;28;20491;-49
2021/09/01 11:21:56;;;;;;;10.20;8.07;;;19.10;99.90;;;;;;5024280;28;20480;-52
2021/09/01 11:24:23;;;;;;;11.30;9.20;;;19.00;99.90;;;;;;5029926;28;20478;-51
2021/09/01 11:26:54;;;;;;;9.73;8.60;;;19.10;99.90;;;;;;5033456;28;20456;-51
2021/09/01 11:29:31;;;;;;;11.43;8.60;;;19.00;99.90;;;;;;5016708;28;20430;-50
2021/09/01 11:31:58;;;;;;;9.43;7.30;;;19.00;99.90;;;;;;5027951;28;20523;-51
2021/09/01 11:34:25;;;;;;;16.57;9.10;;;19.00;99.90;;;;;;5022003;28;20499;-47
2021/09/01 11:36:52;;;;;;;15.37;8.40;;;19.00;99.90;;;;;;5018502;28;20889;-49
2021/09/01 11:39:19;;;;;;;13.27;8.90;;;19.00;99.90;;;;;;5034562;28;20480;-50
2021/09/01 11:41:47;;;;;;;11.70;8.40;;;19.00;99.90;;;;;;5026426;28;20445;-52
2021/09/01 11:44:14;;;;;;;26.50;14.60;;;19.00;99.90;;;;;;5028008;28;20952;-50
2021/09/01 11:46:42;;;;;;;13.60;8.13;;;18.90;99.90;;;;;;5018564;28;20464;-51
2021/09/01 11:49:12;;;;;;;14.43;9.00;;;19.00;99.90;;;;;;5034696;28;20441;-49
2021/09/01 11:51:42;;;;;;;11.40;8.40;;;19.10;99.90;;;;;;5026081;28;20453;-51
2021/09/01 11:54:10;;;;;;;11.57;8.43;;;19.20;99.90;;;;;;5027333;28;20551;-46
2021/09/01 11:56:37;;;;;;;12.03;8.50;;;19.30;99.90;;;;;;5019663;28;20452;-52
2021/09/01 11:59:05;;;;;;;15.80;9.50;;;19.50;99.90;;;;;;5019825;28;20541;-51
2021/09/01 12:01:35;;;;;;;9.40;7.50;;;19.70;99.90;;;;;;5028310;28;20457;-51
2021/09/01 12:04:03;;;;;;;11.67;8.13;;;19.90;99.90;;;;;;5028577;28;20444;-53
2021/09/01 12:06:35;;;;;;;12.73;7.60;;;19.80;99.90;;;;;;5035964;28;20828;-52
2021/09/01 12:09:04;;;;;;;10.60;7.33;;;19.90;99.90;;;;;;5016017;28;21029;-48
2021/09/01 12:11:31;;;;;;;11.53;8.57;;;19.90;99.90;;;;;;5023822;28;20456;-50
2021/09/01 12:14:03;;;;;;;10.37;7.10;;;20.00;99.90;;;;;;5025146;28;20445;-51
2021/09/01 12:16:31;;;;;;;13.40;6.30;;;20.00;99.90;;;;;;5031939;28;20444;-51
2021/09/01 12:19:01;;;;;;;9.30;7.60;;;20.10;99.90;;;;;;5019053;28;20476;-49
2021/09/01 12:21:46;;;;;;;11.00;7.63;;;20.20;99.90;;;;;;5028252;28;20448;-45
2021/09/01 12:24:14;;;;;;;7.13;6.30;;;20.20;99.90;;;;;;5029503;28;20463;-48
2021/09/01 12:26:49;;;;;;;10.20;8.13;;;20.20;99.90;;;;;;5035819;28;20824;-47
2021/09/01 12:29:31;;;;;;;10.47;6.70;;;20.20;99.90;;;;;;5021341;28;20428;-53
2021/09/01 12:31:59;;;;;;;11.90;7.63;;;20.20;99.90;;;;;;5023332;28;20436;-47
2021/09/01 12:34:38;;;;;;;9.93;7.80;;;20.20;99.90;;;;;;5029036;28;20449;-54
2021/09/01 12:37:13;;;;;;;8.03;6.93;;;20.10;99.90;;;;;;5029698;28;20559;-53
2021/09/01 12:39:45;;;;;;;10.53;7.90;;;20.10;99.90;;;;;;5023034;28;20513;-54
2021/09/01 12:42:27;;;;;;;22.50;8.30;;;20.30;99.90;;;;;;5035096;28;20467;-52
2021/09/01 12:44:55;;;;;;;6.67;5.70;;;20.50;99.90;;;;;;5019745;28;20507;-51
2021/09/01 12:47:22;;;;;;;11.77;7.73;;;20.60;99.90;;;;;;5029387;28;20447;-51
2021/09/01 12:49:52;;;;;;;7.13;6.43;;;20.60;99.90;;;;;;5025716;28;20448;-53